sensor_id;sensor_type;location;lat;lon;timestamp;pressure;altitude;pressure_sealevel;temperature;humidity
9905;BME280;4991;43.566;27.820;2023-04-08T00:01:11;99242.44;;;6.28;100.00
9905;BME280;4991;43.566;27.820;2023-04-08T00:03:36;99241.16;;;6.36;100.00
9905;BME280;4991;43.566;27.820;2023-04-08T00:06:02;99240.59;;;6.39;100.00
9905;BME280;4991;43.566;27.820;2023-04-08T00:08:29;99234.34;;;6.33;100.00
9905;BME280;4991;43.566;27.820;2023-04-08T00:10:55;99248.44;;;6.40;100.00
9905;BME280;4991;43.566;27.820;2023-04-08T00:13:20;99247.88;;;6.28;100.00
9905;BME280;4991;43.566;27.820;2023-04-08T00:15:46;99252.44;;;6.18;100.00
9905;BME280;4991;43.566;27.820;2023-04-08T00:18:13;99245.34;;;6.12;100.00
9905;BME280;4991;43.566;27.820;2023-04-08T00:20:39;99250.75;;;6.07;100.00
9905;BME280;4991;43.566;27.820;2023-04-08T00:23:05;99250.97;;;6.00;100.00
9905;BME280;4991;43.566;27.820;2023-04-08T00:25:31;99246.69;;;6.04;100.00
9905;BME280;4991;43.566;27.820;2023-04-08T00:27:57;99259.13;;;6.05;100.00
9905;BME280;4991;43.566;27.820;2023-04-08T00:30:22;99248.28;;;6.00;100.00
9905;BME280;4991;43.566;27.820;2023-04-08T00:32:48;99252.59;;;5.96;100.00
9905;BME280;4991;43.566;27.820;2023-04-08T00:35:14;99249.94;;;6.01;100.00
9905;BME280;4991;43.566;27.820;2023-04-08T00:37:39;99245.31;;;5.97;100.00
9905;BME280;4991;43.566;27.820;2023-04-08T00:40:06;99246.97;;;6.03;100.00
9905;BME280;4991;43.566;27.820;2023-04-08T00:42:32;99251.50;;;5.97;100.00
9905;BME280;4991;43.566;27.820;2023-04-08T00:44:57;99246.44;;;6.11;100.00
9905;BME280;4991;43.566;27.820;2023-04-08T00:47:23;99242.66;;;6.12;100.00
9905;BME280;4991;43.566;27.820;2023-04-08T00:49:49;99245.66;;;6.15;100.00
9905;BME280;4991;43.566;27.820;2023-04-08T00:52:15;99235.38;;;6.12;100.00
9905;BME280;4991;43.566;27.820;2023-04-08T00:54:41;99246.47;;;6.16;100.00
9905;BME280;4991;43.566;27.820;2023-04-08T00:57:07;99248.91;;;6.17;100.00
9905;BME280;4991;43.566;27.820;2023-04-08T00:59:33;99242.13;;;6.10;100.00
9905;BME280;4991;43.566;27.820;2023-04-08T01:04:52;99246.84;;;5.83;100.00
9905;BME280;4991;43.566;27.820;2023-04-08T01:07:26;99248.50;;;5.89;100.00
9905;BME280;4991;43.566;27.820;2023-04-08T01:10:00;99253.38;;;5.87;100.00
9905;BME280;4991;43.566;27.820;2023-04-08T01:12:29;99244.06;;;5.73;100.00
9905;BME280;4991;43.566;27.820;2023-04-08T01:15:03;99250.28;;;5.73;100.00
9905;BME280;4991;43.566;27.820;2023-04-08T01:17:30;99241.09;;;5.74;100.00
9905;BME280;4991;43.566;27.820;2023-04-08T01:20:00;99245.19;;;5.77;100.00
9905;BME280;4991;43.566;27.820;2023-04-08T01:22:34;99239.75;;;5.72;100.00
9905;BME280;4991;43.566;27.820;2023-04-08T01:25:05;99241.09;;;5.74;100.00
9905;BME280;4991;43.566;27.820;2023-04-08T01:27:33;99227.00;;;5.67;100.00
9905;BME280;4991;43.566;27.820;2023-04-08T01:30:01;99243.91;;;5.89;100.00
9905;BME280;4991;43.566;27.820;2023-04-08T01:32:29;99242.81;;;5.85;100.00
9905;BME280;4991;43.566;27.820;2023-04-08T01:34:57;99239.56;;;5.83;100.00
9905;BME280;4991;43.566;27.820;2023-04-08T01:37:24;99237.84;;;5.77;100.00
9905;BME280;4991;43.566;27.820;2023-04-08T01:39:51;99235.53;;;5.49;100.00
9905;BME280;4991;43.566;27.820;2023-04-08T01:42:18;99233.38;;;5.51;100.00
9905;BME280;4991;43.566;27.820;2023-04-08T01:44:46;99235.72;;;5.38;100.00
9905;BME280;4991;43.566;27.820;2023-04-08T01:47:14;99233.81;;;5.33;100.00
9905;BME280;4991;43.566;27.820;2023-04-08T01:49:40;99234.38;;;5.35;100.00
9905;BME280;4991;43.566;27.820;2023-04-08T01:52:08;99234.94;;;5.37;100.00
9905;BME280;4991;43.566;27.820;2023-04-08T01:54:34;99230.31;;;5.38;100.00
9905;BME280;4991;43.566;27.820;2023-04-08T01:57:01;99230.13;;;5.49;100.00
9905;BME280;4991;43.566;27.820;2023-04-08T01:59:30;99223.91;;;5.44;100.00
9905;BME280;4991;43.566;27.820;2023-04-08T02:02:01;99230.47;;;5.58;100.00
9905;BME280;4991;43.566;27.820;2023-04-08T02:04:29;99232.34;;;5.57;100.00
9905;BME280;4991;43.566;27.820;2023-04-08T02:06:55;99230.47;;;5.58;100.00
9905;BME280;4991;43.566;27.820;2023-04-08T02:09:21;99229.91;;;5.56;100.00
9905;BME280;4991;43.566;27.820;2023-04-08T02:11:46;99227.16;;;5.51;100.00
9905;BME280;4991;43.566;27.820;2023-04-08T02:14:12;99223.78;;;5.28;100.00
9905;BME280;4991;43.566;27.820;2023-04-08T02:17:05;99239.69;;;5.25;100.00
9905;BME280;4991;43.566;27.820;2023-04-08T02:19:43;99238.81;;;5.19;100.00
9905;BME280;4991;43.566;27.820;2023-04-08T02:22:19;99239.38;;;5.21;100.00
9905;BME280;4991;43.566;27.820;2023-04-08T02:24:49;99233.56;;;5.03;100.00
9905;BME280;4991;43.566;27.820;2023-04-08T02:27:16;99233.81;;;5.01;100.00
9905;BME280;4991;43.566;27.820;2023-04-08T02:29:44;99238.09;;;4.97;100.00
9905;BME280;4991;43.566;27.820;2023-04-08T02:32:11;99240.94;;;4.86;100.00
9905;BME280;4991;43.566;27.820;2023-04-08T02:34:39;99244.13;;;4.78;100.00
9905;BME280;4991;43.566;27.820;2023-04-08T02:37:07;99242.00;;;4.80;100.00
9905;BME280;4991;43.566;27.820;2023-04-08T02:39:33;99227.88;;;4.73;100.00
9905;BME280;4991;43.566;27.820;2023-04-08T02:41:59;99234.25;;;4.62;100.00
9905;BME280;4991;43.566;27.820;2023-04-08T02:44:24;99228.97;;;4.45;100.00
9905;BME280;4991;43.566;27.820;2023-04-08T02:46:50;99236.13;;;4.35;100.00
9905;BME280;4991;43.566;27.820;2023-04-08T02:49:16;99227.63;;;4.21;100.00
9905;BME280;4991;43.566;27.820;2023-04-08T02:51:41;99235.09;;;4.14;100.00
9905;BME280;4991;43.566;27.820;2023-04-08T02:54:07;99233.03;;;4.26;100.00
9905;BME280;4991;43.566;27.820;2023-04-08T02:56:33;99227.78;;;4.15;100.00
9905;BME280;4991;43.566;27.820;2023-04-08T02:58:59;99226.25;;;3.97;100.00
9905;BME280;4991;43.566;27.820;2023-04-08T03:01:25;99239.97;;;3.95;100.00
9905;BME280;4991;43.566;27.820;2023-04-08T03:03:51;99242.34;;;3.92;100.00
9905;BME280;4991;43.566;27.820;2023-04-08T03:06:17;99232.75;;;3.79;100.00
9905;BME280;4991;43.566;27.820;2023-04-08T03:08:42;99252.09;;;3.76;100.00
9905;BME280;4991;43.566;27.820;2023-04-08T03:11:08;99250.47;;;3.75;100.00
9905;BME280;4991;43.566;27.820;2023-04-08T03:13:33;99256.69;;;3.76;100.00
9905;BME280;4991;43.566;27.820;2023-04-08T03:15:59;99255.09;;;3.80;100.00
9905;BME280;4991;43.566;27.820;2023-04-08T03:18:25;99251.94;;;3.83;100.00
9905;BME280;4991;43.566;27.820;2023-04-08T03:20:51;99263.25;;;3.85;100.00
9905;BME280;4991;43.566;27.820;2023-04-08T03:23:16;99261.88;;;3.82;100.00
9905;BME280;4991;43.566;27.820;2023-04-08T03:25:42;99267.63;;;3.69;100.00
9905;BME280;4991;43.566;27.820;2023-04-08T03:28:07;99271.88;;;3.65;100.00
9905;BME280;4991;43.566;27.820;2023-04-08T03:30:33;99274.00;;;3.63;100.00
9905;BME280;4991;43.566;27.820;2023-04-08T03:32:59;99260.63;;;3.52;100.00
9905;BME280;4991;43.566;27.820;2023-04-08T03:35:24;99270.81;;;3.50;100.00
9905;BME280;4991;43.566;27.820;2023-04-08T03:37:50;99274.50;;;3.44;100.00
9905;BME280;4991;43.566;27.820;2023-04-08T03:40:16;99272.81;;;3.38;100.00
9905;BME280;4991;43.566;27.820;2023-04-08T03:42:42;99290.84;;;3.37;100.00
9905;BME280;4991;43.566;27.820;2023-04-08T03:45:08;99257.16;;;3.18;100.00
9905;BME280;4991;43.566;27.820;2023-04-08T03:47:33;99285.13;;;3.34;100.00
9905;BME280;4991;43.566;27.820;2023-04-08T03:49:59;99291.16;;;3.41;100.00
9905;BME280;4991;43.566;27.820;2023-04-08T03:52:25;99287.72;;;3.45;100.00
9905;BME280;4991;43.566;27.820;2023-04-08T03:54:50;99290.41;;;3.45;100.00
9905;BME280;4991;43.566;27.820;2023-04-08T03:57:16;99287.66;;;3.40;100.00
9905;BME280;4991;43.566;27.820;2023-04-08T03:59:41;99292.00;;;3.41;100.00
9905;BME280;4991;43.566;27.820;2023-04-08T04:02:07;99296.63;;;3.46;100.00
9905;BME280;4991;43.566;27.820;2023-04-08T04:04:33;99286.50;;;3.53;100.00
9905;BME280;4991;43.566;27.820;2023-04-08T04:06:59;99298.88;;;3.70;100.00
9905;BME280;4991;43.566;27.820;2023-04-08T04:09:25;99292.19;;;3.73;100.00
9905;BME280;4991;43.566;27.820;2023-04-08T04:11:51;99306.03;;;3.81;100.00
9905;BME280;4991;43.566;27.820;2023-04-08T04:14:17;99310.69;;;3.86;100.00
9905;BME280;4991;43.566;27.820;2023-04-08T04:16:42;99315.59;;;3.89;100.00
9905;BME280;4991;43.566;27.820;2023-04-08T04:19:08;99309.53;;;3.98;100.00
9905;BME280;4991;43.566;27.820;2023-04-08T04:21:35;99306.06;;;4.03;100.00
9905;BME280;4991;43.566;27.820;2023-04-08T04:24:00;99311.84;;;4.12;100.00
9905;BME280;4991;43.566;27.820;2023-04-08T04:26:26;99315.81;;;4.26;100.00
9905;BME280;4991;43.566;27.820;2023-04-08T04:28:52;99313.50;;;4.34;100.00
9905;BME280;4991;43.566;27.820;2023-04-08T04:31:19;99306.91;;;4.47;100.00
9905;BME280;4991;43.566;27.820;2023-04-08T04:33:46;99311.28;;;4.53;100.00
9905;BME280;4991;43.566;27.820;2023-04-08T04:36:12;99312.22;;;4.63;100.00
9905;BME280;4991;43.566;27.820;2023-04-08T04:38:38;99307.97;;;4.67;100.00
9905;BME280;4991;43.566;27.820;2023-04-08T04:41:04;99275.06;;;4.44;100.00
9905;BME280;4991;43.566;27.820;2023-04-08T04:43:30;99313.09;;;4.69;100.00
9905;BME280;4991;43.566;27.820;2023-04-08T04:45:55;99311.81;;;4.76;100.00
9905;BME280;4991;43.566;27.820;2023-04-08T04:48:22;99315.09;;;4.78;100.00
9905;BME280;4991;43.566;27.820;2023-04-08T04:50:58;99311.53;;;4.99;100.00
9905;BME280;4991;43.566;27.820;2023-04-08T04:53:24;99320.03;;;5.13;100.00
9905;BME280;4991;43.566;27.820;2023-04-08T04:55:50;99320.00;;;5.40;100.00
9905;BME280;4991;43.566;27.820;2023-04-08T04:58:16;99322.03;;;5.59;100.00
9905;BME280;4991;43.566;27.820;2023-04-08T05:00:43;99320.00;;;5.76;100.00
9905;BME280;4991;43.566;27.820;2023-04-08T05:03:08;99322.69;;;5.71;100.00
9905;BME280;4991;43.566;27.820;2023-04-08T05:05:34;99324.63;;;5.81;100.00
9905;BME280;4991;43.566;27.820;2023-04-08T05:08:00;99325.56;;;5.91;100.00
9905;BME280;4991;43.566;27.820;2023-04-08T05:10:26;99323.47;;;6.03;100.00
9905;BME280;4991;43.566;27.820;2023-04-08T05:12:51;99325.34;;;6.03;100.00
9905;BME280;4991;43.566;27.820;2023-04-08T05:15:17;99327.53;;;6.06;100.00
9905;BME280;4991;43.566;27.820;2023-04-08T05:17:43;99328.72;;;6.20;100.00
9905;BME280;4991;43.566;27.820;2023-04-08T05:20:08;99323.59;;;6.28;100.00
9905;BME280;4991;43.566;27.820;2023-04-08T05:22:34;99324.72;;;6.37;100.00
9905;BME280;4991;43.566;27.820;2023-04-08T05:25:00;99320.47;;;6.62;100.00
9905;BME280;4991;43.566;27.820;2023-04-08T05:27:25;99327.63;;;6.83;100.00
9905;BME280;4991;43.566;27.820;2023-04-08T05:29:51;99317.06;;;6.86;100.00
9905;BME280;4991;43.566;27.820;2023-04-08T05:32:17;99322.75;;;7.00;100.00
9905;BME280;4991;43.566;27.820;2023-04-08T05:34:43;99318.44;;;6.99;100.00
9905;BME280;4991;43.566;27.820;2023-04-08T05:37:09;99320.34;;;7.03;100.00
9905;BME280;4991;43.566;27.820;2023-04-08T05:39:34;99319.59;;;7.33;100.00
9905;BME280;4991;43.566;27.820;2023-04-08T05:42:01;99314.16;;;7.48;100.00
9905;BME280;4991;43.566;27.820;2023-04-08T05:44:26;99321.22;;;7.74;100.00
9905;BME280;4991;43.566;27.820;2023-04-08T05:46:52;99326.63;;;7.89;100.00
9905;BME280;4991;43.566;27.820;2023-04-08T05:49:18;99327.13;;;7.86;100.00
9905;BME280;4991;43.566;27.820;2023-04-08T05:51:43;99320.09;;;7.85;100.00
9905;BME280;4991;43.566;27.820;2023-04-08T05:54:09;99323.84;;;8.14;100.00
9905;BME280;4991;43.566;27.820;2023-04-08T05:56:35;99310.25;;;8.34;100.00
9905;BME280;4991;43.566;27.820;2023-04-08T05:59:00;99327.91;;;8.27;100.00
9905;BME280;4991;43.566;27.820;2023-04-08T06:01:26;99324.28;;;8.56;100.00
9905;BME280;4991;43.566;27.820;2023-04-08T06:03:52;99318.56;;;8.63;100.00
9905;BME280;4991;43.566;27.820;2023-04-08T06:06:20;99313.44;;;8.51;100.00
9905;BME280;4991;43.566;27.820;2023-04-08T06:08:46;99314.50;;;8.65;100.00
9905;BME280;4991;43.566;27.820;2023-04-08T06:11:11;99319.22;;;8.93;100.00
9905;BME280;4991;43.566;27.820;2023-04-08T06:13:37;99322.13;;;9.02;100.00
9905;BME280;4991;43.566;27.820;2023-04-08T06:16:13;99313.69;;;9.13;100.00
9905;BME280;4991;43.566;27.820;2023-04-08T06:18:41;99309.03;;;9.14;100.00
9905;BME280;4991;43.566;27.820;2023-04-08T06:21:09;99313.34;;;9.20;100.00
9905;BME280;4991;43.566;27.820;2023-04-08T06:23:34;99319.31;;;9.56;100.00
9905;BME280;4991;43.566;27.820;2023-04-08T06:26:00;99320.59;;;9.68;100.00
9905;BME280;4991;43.566;27.820;2023-04-08T06:28:28;99311.44;;;9.88;100.00
9905;BME280;4991;43.566;27.820;2023-04-08T06:30:55;99310.19;;;9.75;100.00
9905;BME280;4991;43.566;27.820;2023-04-08T06:33:21;99313.88;;;9.89;100.00
9905;BME280;4991;43.566;27.820;2023-04-08T06:35:46;99317.03;;;10.01;100.00
9905;BME280;4991;43.566;27.820;2023-04-08T06:38:12;99314.53;;;10.33;100.00
9905;BME280;4991;43.566;27.820;2023-04-08T06:40:38;99309.81;;;10.15;100.00
9905;BME280;4991;43.566;27.820;2023-04-08T06:43:04;99319.38;;;10.13;100.00
9905;BME280;4991;43.566;27.820;2023-04-08T06:45:32;99308.16;;;10.19;100.00
9905;BME280;4991;43.566;27.820;2023-04-08T06:47:58;99306.06;;;10.35;100.00
9905;BME280;4991;43.566;27.820;2023-04-08T06:50:24;99313.66;;;10.14;100.00
9905;BME280;4991;43.566;27.820;2023-04-08T06:52:50;99298.66;;;10.40;100.00
9905;BME280;4991;43.566;27.820;2023-04-08T06:55:16;99311.22;;;10.36;100.00
9905;BME280;4991;43.566;27.820;2023-04-08T06:57:42;99307.34;;;10.85;100.00
9905;BME280;4991;43.566;27.820;2023-04-08T07:00:08;99295.66;;;11.03;100.00
9905;BME280;4991;43.566;27.820;2023-04-08T07:02:34;99302.78;;;10.80;100.00
9905;BME280;4991;43.566;27.820;2023-04-08T07:05:00;99302.25;;;10.78;100.00
9905;BME280;4991;43.566;27.820;2023-04-08T07:07:25;99302.16;;;11.25;100.00
9905;BME280;4991;43.566;27.820;2023-04-08T07:09:51;99296.78;;;11.52;100.00
9905;BME280;4991;43.566;27.820;2023-04-08T07:12:16;99304.94;;;11.39;100.00
9905;BME280;4991;43.566;27.820;2023-04-08T07:14:42;99304.78;;;11.49;100.00
9905;BME280;4991;43.566;27.820;2023-04-08T07:17:08;99298.19;;;11.68;100.00
9905;BME280;4991;43.566;27.820;2023-04-08T07:19:35;99311.16;;;12.09;100.00
9905;BME280;4991;43.566;27.820;2023-04-08T07:22:01;99311.84;;;12.14;100.00
9905;BME280;4991;43.566;27.820;2023-04-08T07:24:27;99315.41;;;12.28;100.00
9905;BME280;4991;43.566;27.820;2023-04-08T07:26:53;99306.81;;;12.48;100.00
9905;BME280;4991;43.566;27.820;2023-04-08T07:29:21;99312.22;;;12.08;100.00
9905;BME280;4991;43.566;27.820;2023-04-08T07:31:47;99309.53;;;12.35;100.00
9905;BME280;4991;43.566;27.820;2023-04-08T07:34:13;99317.34;;;12.55;100.00
9905;BME280;4991;43.566;27.820;2023-04-08T07:36:38;99309.84;;;12.74;100.00
9905;BME280;4991;43.566;27.820;2023-04-08T07:39:07;99314.09;;;12.80;100.00
9905;BME280;4991;43.566;27.820;2023-04-08T07:41:33;99314.16;;;13.16;100.00
9905;BME280;4991;43.566;27.820;2023-04-08T07:43:59;99310.09;;;13.49;100.00
9905;BME280;4991;43.566;27.820;2023-04-08T07:46:25;99312.78;;;13.27;100.00
9905;BME280;4991;43.566;27.820;2023-04-08T07:48:50;99325.38;;;13.28;100.00
9905;BME280;4991;43.566;27.820;2023-04-08T07:51:16;99312.72;;;13.76;100.00
9905;BME280;4991;43.566;27.820;2023-04-08T07:53:42;99314.13;;;13.73;100.00
9905;BME280;4991;43.566;27.820;2023-04-08T07:56:14;99310.09;;;13.71;100.00
9905;BME280;4991;43.566;27.820;2023-04-08T07:58:40;99315.81;;;13.61;100.00
9905;BME280;4991;43.566;27.820;2023-04-08T08:01:20;99318.06;;;13.23;100.00
9905;BME280;4991;43.566;27.820;2023-04-08T08:03:47;99322.66;;;12.87;100.00
9905;BME280;4991;43.566;27.820;2023-04-08T08:06:13;99317.94;;;13.06;100.00
9905;BME280;4991;43.566;27.820;2023-04-08T08:08:39;99321.66;;;13.10;100.00
9905;BME280;4991;43.566;27.820;2023-04-08T08:11:05;99324.09;;;12.98;100.00
9905;BME280;4991;43.566;27.820;2023-04-08T08:13:32;99322.69;;;12.73;100.00
9905;BME280;4991;43.566;27.820;2023-04-08T08:15:58;99319.06;;;12.78;100.00
9905;BME280;4991;43.566;27.820;2023-04-08T08:18:24;99323.50;;;13.01;100.00
9905;BME280;4991;43.566;27.820;2023-04-08T08:20:49;99318.84;;;12.74;100.00
9905;BME280;4991;43.566;27.820;2023-04-08T08:23:15;99316.50;;;13.09;100.00
9905;BME280;4991;43.566;27.820;2023-04-08T08:25:41;99321.53;;;13.15;100.00
9905;BME280;4991;43.566;27.820;2023-04-08T08:28:07;99315.38;;;12.96;100.00
9905;BME280;4991;43.566;27.820;2023-04-08T08:30:33;99317.56;;;13.35;100.00
9905;BME280;4991;43.566;27.820;2023-04-08T08:32:59;99313.41;;;13.59;100.00
9905;BME280;4991;43.566;27.820;2023-04-08T08:35:25;99323.94;;;13.30;100.00
9905;BME280;4991;43.566;27.820;2023-04-08T08:37:51;99312.31;;;13.47;100.00
9905;BME280;4991;43.566;27.820;2023-04-08T08:40:17;99317.69;;;13.96;100.00
9905;BME280;4991;43.566;27.820;2023-04-08T08:42:49;99313.41;;;14.34;100.00
9905;BME280;4991;43.566;27.820;2023-04-08T08:45:18;99312.38;;;14.69;100.00
9905;BME280;4991;43.566;27.820;2023-04-08T08:47:44;99317.44;;;14.93;100.00
9905;BME280;4991;43.566;27.820;2023-04-08T08:50:10;99303.69;;;14.67;100.00
9905;BME280;4991;43.566;27.820;2023-04-08T08:52:38;99301.19;;;15.05;100.00
9905;BME280;4991;43.566;27.820;2023-04-08T08:55:04;99303.88;;;14.88;100.00
9905;BME280;4991;43.566;27.820;2023-04-08T08:57:30;99309.41;;;15.05;100.00
9905;BME280;4991;43.566;27.820;2023-04-08T08:59:55;99314.22;;;14.91;100.00
9905;BME280;4991;43.566;27.820;2023-04-08T09:02:30;99320.22;;;15.01;100.00
9905;BME280;4991;43.566;27.820;2023-04-08T09:04:59;99313.03;;;15.48;100.00
9905;BME280;4991;43.566;27.820;2023-04-08T09:07:27;99316.88;;;15.81;100.00
9905;BME280;4991;43.566;27.820;2023-04-08T09:09:54;99328.81;;;15.85;100.00
9905;BME280;4991;43.566;27.820;2023-04-08T09:12:20;99327.88;;;15.81;100.00
9905;BME280;4991;43.566;27.820;2023-04-08T09:14:46;99328.19;;;15.54;100.00
9905;BME280;4991;43.566;27.820;2023-04-08T09:17:12;99330.88;;;15.11;100.00
9905;BME280;4991;43.566;27.820;2023-04-08T09:19:38;99334.94;;;14.66;100.00
9905;BME280;4991;43.566;27.820;2023-04-08T09:22:08;99335.09;;;13.78;100.00
9905;BME280;4991;43.566;27.820;2023-04-08T09:24:35;99333.59;;;13.50;100.00
9905;BME280;4991;43.566;27.820;2023-04-08T09:27:02;99333.88;;;13.26;100.00
9905;BME280;4991;43.566;27.820;2023-04-08T09:29:28;99346.34;;;13.54;100.00
9905;BME280;4991;43.566;27.820;2023-04-08T09:31:59;99338.94;;;13.33;100.00
9905;BME280;4991;43.566;27.820;2023-04-08T09:34:26;99336.53;;;13.75;100.00
9905;BME280;4991;43.566;27.820;2023-04-08T09:36:53;99327.44;;;13.88;100.00
9905;BME280;4991;43.566;27.820;2023-04-08T09:39:20;99340.44;;;14.27;100.00
9905;BME280;4991;43.566;27.820;2023-04-08T09:41:48;99317.31;;;13.89;100.00
9905;BME280;4991;43.566;27.820;2023-04-08T09:44:15;99339.97;;;14.34;100.00
9905;BME280;4991;43.566;27.820;2023-04-08T09:54:52;99325.38;;;15.03;100.00
9905;BME280;4991;43.566;27.820;2023-04-08T10:00:10;99331.69;;;15.03;100.00
9905;BME280;4991;43.566;27.820;2023-04-08T10:05:23;99329.13;;;15.15;100.00
9905;BME280;4991;43.566;27.820;2023-04-08T10:07:49;99322.72;;;14.72;100.00
9905;BME280;4991;43.566;27.820;2023-04-08T10:10:15;99332.19;;;14.58;100.00
9905;BME280;4991;43.566;27.820;2023-04-08T10:12:42;99328.13;;;15.03;100.00
9905;BME280;4991;43.566;27.820;2023-04-08T10:15:28;99332.78;;;14.94;100.00
9905;BME280;4991;43.566;27.820;2023-04-08T10:20:46;99329.72;;;16.23;100.00
9905;BME280;4991;43.566;27.820;2023-04-08T10:23:15;99334.63;;;15.92;100.00
9905;BME280;4991;43.566;27.820;2023-04-08T10:30:46;99327.06;;;19.06;100.00
9905;BME280;4991;43.566;27.820;2023-04-08T10:33:17;99317.66;;;19.87;100.00
9905;BME280;4991;43.566;27.820;2023-04-08T10:35:47;99319.94;;;20.24;95.60
9905;BME280;4991;43.566;27.820;2023-04-08T10:38:14;99305.28;;;21.02;90.55
9905;BME280;4991;43.566;27.820;2023-04-08T10:40:42;99305.13;;;20.64;92.97
9905;BME280;4991;43.566;27.820;2023-04-08T10:43:09;99299.22;;;20.34;91.97
9905;BME280;4991;43.566;27.820;2023-04-08T10:45:35;99315.72;;;20.93;88.93
9905;BME280;4991;43.566;27.820;2023-04-08T10:48:14;99311.50;;;21.84;83.80
9905;BME280;4991;43.566;27.820;2023-04-08T10:50:43;99310.47;;;22.33;81.27
9905;BME280;4991;43.566;27.820;2023-04-08T10:53:10;99306.16;;;22.58;80.10
9905;BME280;4991;43.566;27.820;2023-04-08T10:55:36;99306.06;;;23.00;75.84
9905;BME280;4991;43.566;27.820;2023-04-08T10:58:09;99309.22;;;23.51;72.23
9905;BME280;4991;43.566;27.820;2023-04-08T11:00:39;99311.09;;;22.68;69.84
9905;BME280;4991;43.566;27.820;2023-04-08T11:03:06;99304.41;;;23.22;70.92
9905;BME280;4991;43.566;27.820;2023-04-08T11:05:33;99310.00;;;23.48;70.64
9905;BME280;4991;43.566;27.820;2023-04-08T11:07:59;99313.69;;;24.21;64.37
9905;BME280;4991;43.566;27.820;2023-04-08T11:10:26;99302.69;;;24.32;66.54
9905;BME280;4991;43.566;27.820;2023-04-08T11:12:54;99310.19;;;24.68;65.32
9905;BME280;4991;43.566;27.820;2023-04-08T11:15:20;99308.97;;;23.33;65.26
9905;BME280;4991;43.566;27.820;2023-04-08T11:17:47;99299.22;;;24.05;61.15
9905;BME280;4991;43.566;27.820;2023-04-08T11:20:14;99304.19;;;24.26;64.42
9905;BME280;4991;43.566;27.820;2023-04-08T11:22:39;99309.94;;;23.44;62.00
9905;BME280;4991;43.566;27.820;2023-04-08T11:25:07;99304.38;;;21.13;68.47
9905;BME280;4991;43.566;27.820;2023-04-08T11:27:35;99308.94;;;20.28;80.40
9905;BME280;4991;43.566;27.820;2023-04-08T11:30:01;99304.13;;;20.87;75.33
9905;BME280;4991;43.566;27.820;2023-04-08T11:32:27;99298.56;;;21.91;70.10
9905;BME280;4991;43.566;27.820;2023-04-08T11:34:53;99298.19;;;22.12;70.58
9905;BME280;4991;43.566;27.820;2023-04-08T11:37:20;99288.06;;;22.23;70.21
9905;BME280;4991;43.566;27.820;2023-04-08T11:39:46;99303.63;;;22.50;66.45
9905;BME280;4991;43.566;27.820;2023-04-08T11:42:31;99257.53;;;20.58;70.51
9905;BME280;4991;43.566;27.820;2023-04-08T11:44:58;99275.66;;;19.97;75.13
9905;BME280;4991;43.566;27.820;2023-04-08T11:47:32;99283.00;;;18.86;81.09
9905;BME280;4991;43.566;27.820;2023-04-08T11:49:59;99285.41;;;18.75;86.52
9905;BME280;4991;43.566;27.820;2023-04-08T11:52:41;99284.63;;;18.06;89.48
9905;BME280;4991;43.566;27.820;2023-04-08T11:55:09;99278.00;;;18.07;89.70
9905;BME280;4991;43.566;27.820;2023-04-08T11:57:35;99278.38;;;17.52;96.94
9905;BME280;4991;43.566;27.820;2023-04-08T12:00:03;99281.06;;;17.61;100.00
9905;BME280;4991;43.566;27.820;2023-04-08T12:02:30;99285.69;;;17.81;97.42
9905;BME280;4991;43.566;27.820;2023-04-08T12:04:55;99284.72;;;17.03;100.00
9905;BME280;4991;43.566;27.820;2023-04-08T12:07:21;99276.09;;;17.87;98.64
9905;BME280;4991;43.566;27.820;2023-04-08T12:09:47;99280.44;;;17.88;97.69
9905;BME280;4991;43.566;27.820;2023-04-08T12:12:12;99268.84;;;18.27;96.46
9905;BME280;4991;43.566;27.820;2023-04-08T12:14:38;99274.25;;;17.38;100.00
9905;BME280;4991;43.566;27.820;2023-04-08T12:17:03;99267.81;;;16.93;100.00
9905;BME280;4991;43.566;27.820;2023-04-08T12:19:29;99279.44;;;16.69;100.00
9905;BME280;4991;43.566;27.820;2023-04-08T12:21:55;99270.25;;;16.56;100.00
9905;BME280;4991;43.566;27.820;2023-04-08T12:24:20;99266.38;;;16.57;100.00
9905;BME280;4991;43.566;27.820;2023-04-08T12:26:46;99267.75;;;15.88;100.00
9905;BME280;4991;43.566;27.820;2023-04-08T12:29:13;99269.22;;;15.86;100.00
9905;BME280;4991;43.566;27.820;2023-04-08T12:31:38;99277.72;;;16.56;100.00
9905;BME280;4991;43.566;27.820;2023-04-08T12:34:04;99260.56;;;16.59;100.00
9905;BME280;4991;43.566;27.820;2023-04-08T12:36:31;99276.78;;;16.81;100.00
9905;BME280;4991;43.566;27.820;2023-04-08T12:38:58;99266.66;;;16.94;100.00
9905;BME280;4991;43.566;27.820;2023-04-08T12:41:24;99260.13;;;15.94;100.00
9905;BME280;4991;43.566;27.820;2023-04-08T12:43:49;99258.53;;;15.93;100.00
9905;BME280;4991;43.566;27.820;2023-04-08T12:46:15;99266.38;;;15.48;100.00
9905;BME280;4991;43.566;27.820;2023-04-08T12:48:41;99260.84;;;15.05;100.00
9905;BME280;4991;43.566;27.820;2023-04-08T12:51:09;99262.63;;;15.18;100.00
9905;BME280;4991;43.566;27.820;2023-04-08T12:53:35;99254.03;;;15.88;100.00
9905;BME280;4991;43.566;27.820;2023-04-08T12:56:01;99246.06;;;15.95;100.00
9905;BME280;4991;43.566;27.820;2023-04-08T12:58:27;99251.78;;;16.28;100.00
9905;BME280;4991;43.566;27.820;2023-04-08T13:00:52;99241.16;;;15.63;100.00
9905;BME280;4991;43.566;27.820;2023-04-08T13:03:18;99251.28;;;15.88;100.00
9905;BME280;4991;43.566;27.820;2023-04-08T13:05:45;99244.22;;;15.27;100.00
9905;BME280;4991;43.566;27.820;2023-04-08T13:08:11;99239.25;;;15.46;100.00
9905;BME280;4991;43.566;27.820;2023-04-08T13:10:37;99243.56;;;15.30;100.00
9905;BME280;4991;43.566;27.820;2023-04-08T13:13:03;99239.34;;;15.67;100.00
9905;BME280;4991;43.566;27.820;2023-04-08T13:15:28;99237.13;;;15.18;100.00
9905;BME280;4991;43.566;27.820;2023-04-08T13:17:55;99227.13;;;15.22;100.00
9905;BME280;4991;43.566;27.820;2023-04-08T13:20:21;99233.56;;;14.92;100.00
9905;BME280;4991;43.566;27.820;2023-04-08T13:23:11;99236.13;;;14.80;100.00
9905;BME280;4991;43.566;27.820;2023-04-08T13:25:39;99234.25;;;14.41;100.00
9905;BME280;4991;43.566;27.820;2023-04-08T13:28:04;99232.22;;;14.55;100.00
9905;BME280;4991;43.566;27.820;2023-04-08T13:30:32;99230.00;;;14.66;100.00